createdAt,value
2022-08-26T00:00:59.420Z,99539.81
2022-08-26T00:03:26.585Z,99531.35
2022-08-26T00:05:54.624Z,99538.27
2022-08-26T00:08:21.576Z,99534.36
2022-08-26T00:10:48.778Z,99535.36
2022-08-26T00:13:15.851Z,99533.83
2022-08-26T00:15:47.046Z,99535.42
2022-08-26T00:18:21.795Z,99532.39
2022-08-26T00:20:49.203Z,99533.29
2022-08-26T00:23:15.969Z,99534.16
2022-08-26T00:25:42.954Z,99527.91
2022-08-26T00:28:10.288Z,99528.66
2022-08-26T00:30:37.842Z,99527.89
2022-08-26T00:33:06.266Z,99526.10
2022-08-26T00:35:34.245Z,99520.24
2022-08-26T00:38:01.610Z,99519.95
2022-08-26T00:40:40.676Z,99523.79
2022-08-26T00:43:09.603Z,99521.13
2022-08-26T00:45:49.882Z,99517.25
2022-08-26T00:48:19.058Z,99516.63
2022-08-26T00:50:50.863Z,99516.80
2022-08-26T00:53:24.019Z,99512.86
2022-08-26T00:55:54.448Z,99516.93
2022-08-26T00:58:22.649Z,99515.54
2022-08-26T01:00:49.520Z,99515.02
2022-08-26T01:03:17.121Z,99507.52
2022-08-26T01:05:43.897Z,99508.31
2022-08-26T01:08:11.214Z,99506.80
2022-08-26T01:10:38.797Z,99505.58
2022-08-26T01:13:10.036Z,99505.35
2022-08-26T01:15:45.615Z,99507.02
2022-08-26T01:18:13.344Z,99503.92
2022-08-26T01:21:24.904Z,99505.91
2022-08-26T01:23:51.879Z,99504.55
2022-08-26T01:26:33.152Z,99502.88
2022-08-26T01:29:00.966Z,99500.73
2022-08-26T01:31:31.154Z,99502.16
2022-08-26T01:34:21.307Z,99500.79
2022-08-26T01:36:51.546Z,99501.02
2022-08-26T01:39:18.850Z,99502.16
2022-08-26T01:41:45.655Z,99502.61
2022-08-26T01:44:15.776Z,99498.79
2022-08-26T01:46:43.545Z,99491.95
2022-08-26T01:49:10.335Z,99490.55
2022-08-26T01:51:37.352Z,99487.08
2022-08-26T01:54:05.266Z,99487.88
2022-08-26T01:56:33.473Z,99483.39
2022-08-26T01:59:05.722Z,99485.56
2022-08-26T02:01:32.441Z,99485.59
2022-08-26T02:04:11.896Z,99486.61
2022-08-26T02:06:39.182Z,99485.70
2022-08-26T02:09:06.892Z,99482.16
2022-08-26T02:11:33.958Z,99477.69
2022-08-26T02:14:14.677Z,99478.38
2022-08-26T02:16:42.496Z,99476.84
2022-08-26T02:19:17.326Z,99480.45
2022-08-26T02:21:45.932Z,99481.05
2022-08-26T02:24:20.846Z,99480.04
2022-08-26T02:26:47.788Z,99479.83
2022-08-26T02:29:25.745Z,99485.10
2022-08-26T02:31:52.604Z,99485.19
2022-08-26T02:34:21.557Z,99485.33
2022-08-26T02:36:49.394Z,99485.42
2022-08-26T02:39:22.273Z,99481.02
2022-08-26T02:41:49.322Z,99482.08
2022-08-26T02:44:16.112Z,99483.93
2022-08-26T02:46:46.890Z,99484.24
2022-08-26T02:49:15.232Z,99487.06
2022-08-26T02:51:43.861Z,99488.52
2022-08-26T02:54:10.669Z,99486.06
2022-08-26T02:56:37.471Z,99492.01
2022-08-26T02:59:04.261Z,99497.67
2022-08-26T03:01:33.507Z,99495.81
2022-08-26T03:04:00.579Z,99498.95
2022-08-26T03:06:27.372Z,99498.65
2022-08-26T03:08:54.384Z,99498.31
2022-08-26T03:11:21.316Z,99498.59
2022-08-26T03:13:48.630Z,99498.81
2022-08-26T03:16:15.621Z,99501.75
2022-08-26T03:18:42.559Z,99503.27
2022-08-26T03:21:11.164Z,99505.44
2022-08-26T03:23:38.499Z,99504.94
2022-08-26T03:26:06.202Z,99508.67
2022-08-26T03:28:33.507Z,99509.40
2022-08-26T03:31:02.299Z,99510.64
2022-08-26T03:33:29.139Z,99510.34
2022-08-26T03:35:56.050Z,99508.73
2022-08-26T03:38:25.139Z,99507.91
2022-08-26T03:40:52.593Z,99512.77
2022-08-26T03:43:19.745Z,99508.46
2022-08-26T03:45:46.727Z,99512.27
2022-08-26T03:48:13.648Z,99510.00
2022-08-26T03:50:40.458Z,99511.15
2022-08-26T03:53:07.480Z,99512.77
2022-08-26T03:55:39.767Z,99508.65
2022-08-26T03:58:06.498Z,99514.88
2022-08-26T04:00:34.447Z,99512.98
2022-08-26T04:03:01.321Z,99511.73
2022-08-26T04:05:28.402Z,99503.88
2022-08-26T04:07:55.208Z,99500.05
2022-08-26T04:10:28.611Z,99493.27
2022-08-26T04:12:59.019Z,99493.39
2022-08-26T04:15:26.885Z,99493.97
2022-08-26T04:17:53.754Z,99495.85
2022-08-26T04:20:22.646Z,99496.84
2022-08-26T04:22:49.383Z,99495.45
2022-08-26T04:25:16.755Z,99493.86
2022-08-26T04:27:43.491Z,99489.52
2022-08-26T04:30:11.257Z,99489.14
2022-08-26T04:32:38.672Z,99486.80
2022-08-26T04:35:07.285Z,99485.05
2022-08-26T04:37:36.032Z,99486.87
2022-08-26T04:40:03.348Z,99482.66
2022-08-26T04:42:33.311Z,99480.71
2022-08-26T04:45:01.175Z,99476.13
2022-08-26T04:47:32.134Z,99480.13
2022-08-26T04:50:00.027Z,99477.95
2022-08-26T04:52:26.761Z,99482.08
2022-08-26T04:54:54.960Z,99479.92
2022-08-26T04:57:23.277Z,99478.06
2022-08-26T04:59:49.996Z,99474.81
2022-08-26T05:02:16.717Z,99474.48
2022-08-26T05:04:43.693Z,99475.59
2022-08-26T05:07:10.756Z,99475.55
2022-08-26T05:09:39.491Z,99475.27
2022-08-26T05:12:07.516Z,99473.89
2022-08-26T05:14:35.948Z,99473.05
2022-08-26T05:17:03.231Z,99474.42
2022-08-26T05:19:31.603Z,99473.70
2022-08-26T05:21:59.605Z,99474.77
2022-08-26T05:24:26.324Z,99473.08
2022-08-26T05:26:54.117Z,99470.39
2022-08-26T05:29:23.237Z,99469.38
2022-08-26T05:31:53.383Z,99473.40
2022-08-26T05:34:23.139Z,99467.40
2022-08-26T05:36:52.829Z,99470.64
2022-08-26T05:39:19.637Z,99469.14
2022-08-26T05:41:46.431Z,99474.01
2022-08-26T05:44:14.613Z,99473.84
2022-08-26T05:46:41.591Z,99474.18
2022-08-26T05:49:12.628Z,99471.58
2022-08-26T05:51:41.013Z,99474.96
2022-08-26T05:54:07.814Z,99472.56
2022-08-26T05:56:37.825Z,99477.30
2022-08-26T05:59:05.175Z,99477.88
2022-08-26T06:01:35.827Z,99482.58
2022-08-26T06:04:03.010Z,99479.64
2022-08-26T06:06:31.775Z,99477.23
2022-08-26T06:08:59.457Z,99483.97
2022-08-26T06:11:27.483Z,99483.34
2022-08-26T06:13:55.809Z,99482.50
2022-08-26T06:16:25.125Z,99482.76
2022-08-26T06:18:52.335Z,99479.77
2022-08-26T06:21:25.161Z,99479.19
2022-08-26T06:24:12.194Z,99476.15
2022-08-26T06:26:39.110Z,99475.36
2022-08-26T06:29:09.654Z,99473.63
2022-08-26T06:31:36.452Z,99479.05
2022-08-26T06:34:09.882Z,99481.29
2022-08-26T06:36:39.360Z,99480.34
2022-08-26T06:39:07.548Z,99477.52
2022-08-26T06:41:34.499Z,99476.87
2022-08-26T06:44:02.211Z,99475.28
2022-08-26T06:46:29.672Z,99476.62
2022-08-26T06:48:58.304Z,99472.89
2022-08-26T06:51:30.083Z,99474.56
2022-08-26T06:53:59.253Z,99473.77
2022-08-26T06:56:47.905Z,99468.01
2022-08-26T06:59:16.130Z,99465.23
2022-08-26T07:01:46.155Z,99463.52
2022-08-26T07:04:15.652Z,99462.73
2022-08-26T07:06:48.908Z,99455.79
2022-08-26T07:09:15.994Z,99460.67
2022-08-26T07:11:42.827Z,99459.83
2022-08-26T07:14:09.657Z,99479.03
2022-08-26T07:16:36.646Z,99489.52
2022-08-26T07:19:11.230Z,99484.91
2022-08-26T07:21:40.388Z,99483.48
2022-08-26T07:24:08.146Z,99485.19
2022-08-26T07:26:34.893Z,99475.61
2022-08-26T07:29:02.151Z,99476.67
2022-08-26T07:31:36.002Z,99476.65
2022-08-26T07:34:07.662Z,99479.71
2022-08-26T07:36:34.920Z,99475.33
2022-08-26T07:39:01.665Z,99475.61
2022-08-26T07:43:56.939Z,99471.73
2022-08-26T07:46:29.937Z,99468.04
2022-08-26T07:48:57.320Z,99464.34
2022-08-26T07:51:24.995Z,99461.14
2022-08-26T07:53:52.485Z,99455.05
2022-08-26T07:56:20.611Z,99452.08
2022-08-26T07:58:51.504Z,99444.91
2022-08-26T08:01:23.877Z,99445.20
2022-08-26T08:03:51.637Z,99442.08
2022-08-26T08:06:22.607Z,99443.20
2022-08-26T08:08:54.562Z,99439.01
2022-08-26T08:11:21.637Z,99437.21
2022-08-26T08:13:49.168Z,99437.81
2022-08-26T08:16:15.950Z,99432.98
2022-08-26T08:18:42.724Z,99433.99
2022-08-26T08:21:23.603Z,99428.83
2022-08-26T08:23:52.040Z,99431.45
2022-08-26T08:26:18.872Z,99428.05
2022-08-26T08:28:46.299Z,99425.59
2022-08-26T08:31:44.999Z,99420.27
2022-08-26T08:34:08.653Z,99421.40
2022-08-26T08:36:35.814Z,99420.12
2022-08-26T08:39:03.495Z,99417.30
2022-08-26T08:41:36.626Z,99413.14
2022-08-26T08:44:03.530Z,99411.48
2022-08-26T08:46:30.400Z,99415.48
2022-08-26T08:48:59.798Z,99410.04
2022-08-26T08:51:59.231Z,99405.70
2022-08-26T08:54:30.069Z,99407.17
2022-08-26T08:56:57.758Z,99404.95
2022-08-26T08:59:29.332Z,99394.54
2022-08-26T09:02:18.383Z,99399.23
2022-08-26T09:05:03.074Z,99399.41
2022-08-26T09:07:36.559Z,99392.30
2022-08-26T09:10:23.132Z,99391.27
2022-08-26T09:12:50.067Z,99388.24
2022-08-26T09:15:19.426Z,99386.18
2022-08-26T09:17:59.946Z,99385.85
2022-08-26T09:20:41.919Z,99384.92
2022-08-26T09:23:12.380Z,99380.85
2022-08-26T09:25:48.048Z,99385.98
2022-08-26T09:28:20.136Z,99383.20
2022-08-26T09:31:01.484Z,99385.89
2022-08-26T09:33:30.372Z,99383.51
2022-08-26T09:36:24.678Z,99378.28
2022-08-26T09:38:52.745Z,99376.33
2022-08-26T09:41:24.669Z,99378.31
2022-08-26T09:44:14.541Z,99377.73
2022-08-26T09:47:02.824Z,99374.09
2022-08-26T09:49:35.723Z,99375.04
2022-08-26T09:52:20.232Z,99373.83
2022-08-26T09:57:16.233Z,99367.73
2022-08-26T09:59:43.227Z,99367.16
2022-08-26T10:02:32.215Z,99365.41
2022-08-26T10:05:09.023Z,99362.27
2022-08-26T10:07:50.480Z,99366.66
2022-08-26T10:10:18.866Z,99368.79
2022-08-26T10:12:49.655Z,99362.72
2022-08-26T10:15:16.654Z,99366.49
2022-08-26T10:17:50.062Z,99364.89
2022-08-26T10:20:24.045Z,99358.05
2022-08-26T10:23:03.259Z,99364.74
2022-08-26T10:25:35.006Z,99364.47
2022-08-26T10:28:08.043Z,99367.79
2022-08-26T10:30:40.154Z,99363.41
2022-08-26T10:33:11.568Z,99369.86
2022-08-26T10:35:48.596Z,99369.92
2022-08-26T10:38:18.363Z,99372.45
2022-08-26T10:41:10.471Z,99371.60
2022-08-26T10:43:41.676Z,99368.11
2022-08-26T10:46:10.645Z,99365.95
2022-08-26T10:48:53.901Z,99366.81
2022-08-26T10:51:25.036Z,99364.21
2022-08-26T10:54:13.242Z,99362.00
2022-08-26T10:56:58.328Z,99364.27
2022-08-26T10:59:44.239Z,99361.16
2022-08-26T11:02:25.151Z,99359.95
2022-08-26T11:04:56.148Z,99357.86
2022-08-26T11:07:42.658Z,99361.05
2022-08-26T11:10:18.512Z,99361.23
2022-08-26T11:12:49.044Z,99361.65
2022-08-26T11:15:24.390Z,99354.61
2022-08-26T11:17:51.693Z,99356.75
2022-08-26T11:20:27.905Z,99355.75
2022-08-26T11:22:55.713Z,99355.10
2022-08-26T11:25:29.896Z,99356.45
2022-08-26T11:27:59.548Z,99352.39
2022-08-26T11:30:40.325Z,99350.41
2022-08-26T11:33:08.177Z,99355.02
2022-08-26T11:35:35.017Z,99349.77
2022-08-26T11:38:20.662Z,99349.83
2022-08-26T11:41:06.126Z,99346.17
2022-08-26T11:43:33.699Z,99346.64
2022-08-26T11:46:06.023Z,99340.30
2022-08-26T11:48:38.978Z,99348.42
2022-08-26T11:51:21.823Z,99343.30
2022-08-26T11:53:48.676Z,99345.77
2022-08-26T11:56:28.881Z,99344.98
2022-08-26T11:59:00.114Z,99339.36
2022-08-26T12:01:37.992Z,99335.27
2022-08-26T12:04:07.480Z,99338.16
2022-08-26T12:06:44.958Z,99335.68
2022-08-26T12:15:23.004Z,99337.54
2022-08-26T12:17:54.350Z,99338.89
2022-08-26T12:20:48.575Z,99337.02
2022-08-26T12:23:28.201Z,99339.79
2022-08-26T12:26:10.408Z,99332.11
2022-08-26T12:29:26.942Z,99334.13
2022-08-26T12:32:13.310Z,99336.09
2022-08-26T12:34:41.743Z,99337.44
2022-08-26T12:37:10.267Z,99338.94
2022-08-26T12:39:38.467Z,99337.73
2022-08-26T12:42:17.486Z,99337.29
2022-08-26T12:45:01.303Z,99338.88
2022-08-26T12:47:42.291Z,99334.81
2022-08-26T12:50:20.151Z,99339.73
2022-08-26T12:53:00.944Z,99336.98
2022-08-26T12:55:45.338Z,99337.60
2022-08-26T12:58:15.167Z,99338.88
2022-08-26T13:00:49.482Z,99335.82
2022-08-26T13:03:34.813Z,99334.11
2022-08-26T13:06:23.550Z,99336.02
2022-08-26T13:08:55.718Z,99330.16
2022-08-26T13:11:31.887Z,99337.25
2022-08-26T13:14:07.013Z,99336.40
2022-08-26T13:16:34.915Z,99333.02
2022-08-26T13:19:04.401Z,99336.11
2022-08-26T13:21:37.507Z,99332.59
2022-08-26T13:24:09.296Z,99335.77
2022-08-26T13:26:36.078Z,99338.09
2022-08-26T13:29:05.285Z,99337.87
2022-08-26T13:31:35.592Z,99336.60
2022-08-26T13:34:02.973Z,99337.03
2022-08-26T13:36:29.891Z,99336.07
2022-08-26T13:38:56.696Z,99345.61
2022-08-26T13:41:23.621Z,99348.80
2022-08-26T13:43:56.842Z,99343.27
2022-08-26T13:46:27.040Z,99345.84
2022-08-26T13:48:54.610Z,99346.80
2022-08-26T13:51:22.901Z,99348.02
2022-08-26T13:53:50.342Z,99354.20
2022-08-26T13:56:17.172Z,99355.64
2022-08-26T13:58:44.378Z,99358.90
2022-08-26T14:01:13.035Z,99348.56
2022-08-26T14:03:39.896Z,99349.88
2022-08-26T14:06:06.696Z,99346.13
2022-08-26T14:08:33.443Z,99344.95
2022-08-26T14:11:00.265Z,99346.39
2022-08-26T14:13:27.170Z,99345.16
2022-08-26T14:15:54.167Z,99348.11
2022-08-26T14:18:23.904Z,99341.94
2022-08-26T14:20:53.181Z,99347.76
2022-08-26T14:23:19.973Z,99341.95
2022-08-26T14:25:46.764Z,99341.50
2022-08-26T14:28:13.760Z,99343.04
2022-08-26T14:30:41.414Z,99342.33
2022-08-26T14:33:10.750Z,99345.54
2022-08-26T14:35:37.730Z,99349.55
2022-08-26T14:38:04.520Z,99343.52
2022-08-26T14:40:31.650Z,99344.01
2022-08-26T14:43:00.708Z,99339.27
2022-08-26T14:45:27.657Z,99336.84
2022-08-26T14:47:56.580Z,99339.98
2022-08-26T14:50:24.864Z,99339.12
2022-08-26T14:53:27.017Z,99345.08
2022-08-26T14:55:53.815Z,99348.33
2022-08-26T14:58:20.655Z,99349.00
2022-08-26T15:00:47.422Z,99349.99
2022-08-26T15:05:48.026Z,99349.02
2022-08-26T15:08:15.975Z,99350.41
2022-08-26T15:10:42.737Z,99350.98
2022-08-26T15:13:09.514Z,99346.48
2022-08-26T15:15:37.427Z,99348.84
2022-08-26T15:18:04.297Z,99352.84
2022-08-26T15:23:06.069Z,99356.38
2022-08-26T15:25:33.227Z,99358.23
2022-08-26T15:28:00.116Z,99361.61
2022-08-26T15:30:27.355Z,99354.83
2022-08-26T15:32:54.154Z,99357.19
2022-08-26T15:35:21.260Z,99358.02
2022-08-26T15:37:48.087Z,99358.14
2022-08-26T15:40:14.961Z,99355.92
2022-08-26T15:42:41.823Z,99355.63
2022-08-26T15:45:08.923Z,99356.61
2022-08-26T15:47:58.111Z,99355.63
2022-08-26T15:50:22.560Z,99351.44
2022-08-26T15:52:49.335Z,99350.65
2022-08-26T15:55:16.123Z,99351.93
2022-08-26T15:57:42.970Z,99353.62
2022-08-26T16:00:12.396Z,99353.86
2022-08-26T16:02:39.320Z,99353.66
2022-08-26T16:05:06.504Z,99351.73
2022-08-26T16:07:33.473Z,99347.84
2022-08-26T16:10:00.316Z,99351.14
2022-08-26T16:12:27.517Z,99348.30
2022-08-26T16:14:54.349Z,99343.98
2022-08-26T16:17:21.105Z,99343.55
2022-08-26T16:19:47.927Z,99343.90
2022-08-26T16:22:14.716Z,99342.73
2022-08-26T16:24:41.511Z,99339.27
2022-08-26T16:27:08.458Z,99337.88
2022-08-26T16:29:35.260Z,99331.38
2022-08-26T16:32:08.613Z,99330.15
2022-08-26T16:34:36.179Z,99329.63
2022-08-26T16:37:03.066Z,99327.70
2022-08-26T16:39:29.898Z,99325.55
2022-08-26T16:41:56.664Z,99327.14
2022-08-26T16:44:23.473Z,99331.59
2022-08-26T16:46:58.567Z,99329.22
2022-08-26T16:49:25.659Z,99329.34
2022-08-26T16:51:52.422Z,99328.84
2022-08-26T16:54:19.201Z,99324.05
2022-08-26T16:56:45.990Z,99325.60
2022-08-26T16:59:12.834Z,99323.95
2022-08-26T17:01:39.701Z,99327.00
2022-08-26T17:04:06.759Z,99325.98
2022-08-26T17:06:34.280Z,99331.73
2022-08-26T17:09:01.069Z,99332.67
2022-08-26T17:11:28.076Z,99332.88
2022-08-26T17:13:55.014Z,99334.00
2022-08-26T17:16:26.463Z,99335.45
2022-08-26T17:18:55.516Z,99332.61
2022-08-26T17:21:22.296Z,99335.09
2022-08-26T17:23:49.066Z,99333.75
2022-08-26T17:26:15.768Z,99334.45
2022-08-26T17:28:42.560Z,99339.90
2022-08-26T17:31:10.772Z,99341.20
2022-08-26T17:33:38.161Z,99342.13
2022-08-26T17:36:05.943Z,99342.14
2022-08-26T17:38:32.694Z,99341.27
2022-08-26T17:40:59.490Z,99341.40
2022-08-26T17:43:29.429Z,99337.84
2022-08-26T17:46:04.675Z,99335.65
2022-08-26T17:48:35.279Z,99334.64
2022-08-26T17:51:09.778Z,99331.23
2022-08-26T17:53:37.200Z,99332.13
2022-08-26T17:56:08.213Z,99331.15
2022-08-26T17:58:35.136Z,99328.77
2022-08-26T18:01:02.023Z,99325.52
2022-08-26T18:03:28.902Z,99328.76
2022-08-26T18:05:55.675Z,99326.55
2022-08-26T18:08:22.490Z,99326.41
2022-08-26T18:10:49.436Z,99325.07
2022-08-26T18:13:16.363Z,99323.91
2022-08-26T18:15:43.941Z,99322.99
2022-08-26T18:18:11.942Z,99320.50
2022-08-26T18:20:39.160Z,99323.19
2022-08-26T18:23:05.960Z,99321.79
2022-08-26T18:25:33.310Z,99317.20
2022-08-26T18:28:00.208Z,99316.23
2022-08-26T18:30:26.972Z,99309.69
2022-08-26T18:32:53.753Z,99315.12
2022-08-26T18:35:28.912Z,99315.55
2022-08-26T18:37:56.862Z,99315.88
2022-08-26T18:40:24.585Z,99314.61
2022-08-26T18:42:54.176Z,99316.81
2022-08-26T18:45:21.435Z,99318.46
2022-08-26T18:47:48.179Z,99321.06
2022-08-26T18:50:15.763Z,99318.74
2022-08-26T18:52:43.389Z,99322.05
2022-08-26T18:55:10.420Z,99323.48
2022-08-26T18:57:37.174Z,99320.72
2022-08-26T19:00:05.485Z,99322.55
2022-08-26T19:02:32.925Z,99323.85
2022-08-26T19:05:01.156Z,99324.98
2022-08-26T19:07:28.026Z,99324.69
2022-08-26T19:09:55.244Z,99324.16
2022-08-26T19:12:22.346Z,99324.42
2022-08-26T19:14:53.696Z,99324.54
2022-08-26T19:17:20.679Z,99320.48
2022-08-26T19:19:49.828Z,99324.55
2022-08-26T19:22:16.663Z,99324.54
2022-08-26T19:24:43.373Z,99324.83
2022-08-26T19:27:14.585Z,99327.83
2022-08-26T19:29:42.178Z,99331.93
2022-08-26T19:32:09.011Z,99334.72
2022-08-26T19:34:36.364Z,99331.96
2022-08-26T19:37:03.102Z,99330.70
2022-08-26T19:39:29.911Z,99326.55
2022-08-26T19:41:56.747Z,99324.23
2022-08-26T19:44:42.126Z,99327.44
2022-08-26T19:47:09.759Z,99328.26
2022-08-26T19:49:36.652Z,99333.16
2022-08-26T19:52:03.805Z,99334.14
2022-08-26T19:54:30.686Z,99338.46
2022-08-26T19:56:57.459Z,99337.30
2022-08-26T19:59:24.335Z,99340.98
2022-08-26T20:02:00.992Z,99339.77
2022-08-26T20:04:29.651Z,99340.61
2022-08-26T20:06:57.786Z,99340.53
2022-08-26T20:09:28.497Z,99341.51
2022-08-26T20:11:56.754Z,99340.88
2022-08-26T20:14:24.686Z,99342.52
2022-08-26T20:16:51.455Z,99343.29
2022-08-26T20:19:37.646Z,99344.52
2022-08-26T20:22:05.092Z,99346.50
2022-08-26T20:24:32.695Z,99345.09
2022-08-26T20:27:00.836Z,99343.73
2022-08-26T20:29:30.293Z,99349.24
2022-08-26T20:31:57.114Z,99346.20
2022-08-26T20:34:23.889Z,99345.15
2022-08-26T20:36:51.099Z,99346.15
2022-08-26T20:39:18.886Z,99344.39
2022-08-26T20:41:45.803Z,99345.94
2022-08-26T20:44:13.881Z,99342.92
2022-08-26T20:46:40.821Z,99339.64
2022-08-26T20:49:07.648Z,99340.29
2022-08-26T20:51:34.823Z,99338.23
2022-08-26T20:54:01.802Z,99332.89
2022-08-26T20:56:28.626Z,99333.05
2022-08-26T20:58:55.923Z,99332.27
2022-08-26T21:01:28.206Z,99332.43
2022-08-26T21:03:55.552Z,99332.80
2022-08-26T21:06:22.584Z,99332.48
2022-08-26T21:08:50.053Z,99334.11
2022-08-26T21:11:18.292Z,99334.09
2022-08-26T21:14:03.951Z,99332.91
2022-08-26T21:16:31.614Z,99334.91
2022-08-26T21:19:00.308Z,99331.31
2022-08-26T21:21:27.649Z,99331.20
2022-08-26T21:23:54.875Z,99328.58
2022-08-26T21:26:22.350Z,99327.51
2022-08-26T21:28:49.154Z,99327.68
2022-08-26T21:31:17.942Z,99326.50
2022-08-26T21:33:44.781Z,99329.66
2022-08-26T21:36:12.365Z,99325.83
2022-08-26T21:38:39.359Z,99320.49
2022-08-26T21:41:11.990Z,99323.16
2022-08-26T21:43:39.516Z,99320.48
2022-08-26T21:46:16.950Z,99317.20
2022-08-26T21:48:50.564Z,99316.78
2022-08-26T21:51:19.453Z,99318.08
2022-08-26T21:53:46.254Z,99317.04
2022-08-26T21:56:14.208Z,99316.70
2022-08-26T21:58:41.158Z,99317.95
2022-08-26T22:01:09.348Z,99316.20
2022-08-26T22:03:40.704Z,99313.62
2022-08-26T22:06:18.204Z,99314.61
2022-08-26T22:08:45.009Z,99312.08
2022-08-26T22:11:12.023Z,99312.70
2022-08-26T22:14:30.780Z,99313.14
2022-08-26T22:16:58.272Z,99312.60
2022-08-26T22:19:25.172Z,99310.81
2022-08-26T22:21:53.333Z,99311.56
2022-08-26T22:24:21.314Z,99306.91
2022-08-26T22:26:48.837Z,99310.27
2022-08-26T22:29:15.799Z,99310.49
2022-08-26T22:31:42.609Z,99308.80
2022-08-26T22:34:11.441Z,99307.30
2022-08-26T22:36:43.703Z,99306.05
2022-08-26T22:39:15.672Z,99306.48
2022-08-26T22:41:43.126Z,99304.33
2022-08-26T22:44:12.046Z,99306.83
2022-08-26T22:47:01.225Z,99307.82
2022-08-26T22:49:28.809Z,99308.71
2022-08-26T22:51:55.994Z,99305.61
2022-08-26T22:54:22.900Z,99305.23
2022-08-26T22:56:49.743Z,99303.66
2022-08-26T22:59:16.893Z,99304.11
2022-08-26T23:01:44.110Z,99303.02
2022-08-26T23:04:11.149Z,99303.28
2022-08-26T23:06:39.568Z,99301.70
2022-08-26T23:09:06.852Z,99294.10
2022-08-26T23:11:33.688Z,99291.94
2022-08-26T23:14:02.295Z,99291.65
2022-08-26T23:16:39.493Z,99291.09
2022-08-26T23:19:06.752Z,99289.64
2022-08-26T23:21:33.565Z,99287.85
2022-08-26T23:24:01.030Z,99288.05
2022-08-26T23:26:28.097Z,99286.80
2022-08-26T23:28:55.115Z,99288.49
2022-08-26T23:31:22.115Z,99286.03
2022-08-26T23:34:07.445Z,99289.02
2022-08-26T23:36:35.039Z,99287.67
2022-08-26T23:39:03.921Z,99286.23
2022-08-26T23:41:30.827Z,99284.77
2022-08-26T23:44:02.845Z,99285.54
2022-08-26T23:46:30.815Z,99285.52
2022-08-26T23:48:57.587Z,99282.71
2022-08-26T23:51:42.988Z,99281.11
2022-08-26T23:54:13.002Z,99285.19
2022-08-26T23:56:40.066Z,99282.36
2022-08-26T23:59:07.182Z,99281.70
